createdAt,value
2022-12-04T00:03:50.404Z,972.06
2022-12-04T00:08:50.340Z,972.02
2022-12-04T00:13:50.283Z,971.97
2022-12-04T00:18:50.232Z,972.06
2022-12-04T00:23:50.131Z,972.09
2022-12-04T00:28:50.086Z,972.02
2022-12-04T00:33:50.031Z,971.90
2022-12-04T00:38:49.962Z,971.91
2022-12-04T00:43:49.897Z,971.93
2022-12-04T00:48:49.844Z,971.95
2022-12-04T00:53:49.774Z,972.02
2022-12-04T00:58:49.823Z,971.95
2022-12-04T01:03:49.658Z,971.83
2022-12-04T01:08:49.620Z,971.80
2022-12-04T01:13:49.520Z,971.75
2022-12-04T01:18:49.460Z,971.74
2022-12-04T01:23:49.403Z,971.69
2022-12-04T01:28:49.370Z,971.75
2022-12-04T01:33:49.295Z,971.71
2022-12-04T01:38:49.243Z,971.73
2022-12-04T01:43:49.174Z,971.76
2022-12-04T01:48:49.110Z,971.69
2022-12-04T01:53:49.050Z,971.78
2022-12-04T01:58:49.022Z,971.77
2022-12-04T02:03:48.917Z,971.87
2022-12-04T02:08:48.861Z,971.75
2022-12-04T02:13:48.772Z,971.66
2022-12-04T02:18:48.723Z,971.68
2022-12-04T02:23:48.652Z,971.61
2022-12-04T02:28:48.594Z,971.62
2022-12-04T02:33:48.541Z,971.71
2022-12-04T02:38:48.471Z,971.64
2022-12-04T02:43:48.426Z,971.75
2022-12-04T02:48:48.362Z,971.76
2022-12-04T02:53:48.288Z,971.84
2022-12-04T02:58:48.220Z,971.77
2022-12-04T03:03:48.150Z,971.67
2022-12-04T03:08:48.096Z,971.64
2022-12-04T03:13:48.021Z,971.63
2022-12-04T03:18:47.976Z,971.53
2022-12-04T03:23:47.927Z,971.48
2022-12-04T03:28:47.850Z,971.38
2022-12-04T03:33:47.801Z,971.26
2022-12-04T03:38:47.711Z,971.22
2022-12-04T03:43:47.648Z,971.06
2022-12-04T03:48:47.576Z,971.01
2022-12-04T03:53:47.520Z,970.97
2022-12-04T03:58:47.457Z,970.93
2022-12-04T04:03:47.380Z,970.99
2022-12-04T04:08:47.327Z,970.93
2022-12-04T04:13:47.255Z,970.86
2022-12-04T04:18:47.220Z,970.88
2022-12-04T04:23:47.157Z,970.87
2022-12-04T04:28:47.085Z,970.87
2022-12-04T04:33:47.021Z,970.65
2022-12-04T04:38:46.945Z,970.70
2022-12-04T04:43:46.899Z,970.68
2022-12-04T04:48:46.821Z,970.66
2022-12-04T04:53:46.760Z,970.66
2022-12-04T04:58:46.699Z,970.63
2022-12-04T05:03:46.626Z,970.86
2022-12-04T05:08:46.558Z,970.89
2022-12-04T05:13:46.509Z,970.97
2022-12-04T05:18:46.437Z,971.06
2022-12-04T05:23:46.400Z,971.05
2022-12-04T05:28:46.326Z,970.99
2022-12-04T05:33:46.274Z,971.22
2022-12-04T05:38:46.206Z,971.18
2022-12-04T05:43:46.167Z,971.06
2022-12-04T05:48:46.085Z,971.04
2022-12-04T05:53:46.017Z,971.04
2022-12-04T05:58:45.956Z,971.17
2022-12-04T06:03:45.878Z,971.20
2022-12-04T06:08:45.823Z,971.27
2022-12-04T06:13:45.746Z,971.23
2022-12-04T06:18:45.684Z,971.19
2022-12-04T06:23:45.646Z,971.22
2022-12-04T06:28:45.586Z,971.24
2022-12-04T06:33:45.517Z,971.22
2022-12-04T06:38:45.468Z,971.32
2022-12-04T06:43:45.758Z,971.20
2022-12-04T06:48:45.341Z,971.25
2022-12-04T06:53:45.250Z,971.33
2022-12-04T06:58:45.185Z,971.22
2022-12-04T07:03:50.961Z,971.26
2022-12-04T07:08:46.067Z,971.26
2022-12-04T07:13:44.984Z,971.32
2022-12-04T07:18:44.934Z,971.28
2022-12-04T07:23:44.883Z,971.20
2022-12-04T07:28:44.814Z,971.30
2022-12-04T07:33:44.747Z,971.21
2022-12-04T07:38:44.680Z,971.05
2022-12-04T07:43:44.620Z,971.00
2022-12-04T07:48:44.565Z,970.81
2022-12-04T07:53:44.493Z,970.84
2022-12-04T07:58:44.442Z,971.00
2022-12-04T08:03:47.985Z,971.12
2022-12-04T08:08:44.318Z,971.13
2022-12-04T08:13:44.236Z,971.07
2022-12-04T08:18:44.179Z,971.15
2022-12-04T08:23:44.116Z,971.15
2022-12-04T08:28:44.047Z,971.13
2022-12-04T08:33:44.025Z,971.09
2022-12-04T08:38:43.953Z,971.11
2022-12-04T08:43:43.885Z,971.08
2022-12-04T08:48:43.810Z,971.14
2022-12-04T08:53:43.764Z,971.09
2022-12-04T08:58:43.693Z,971.15
2022-12-04T09:03:43.632Z,971.29
2022-12-04T09:08:43.566Z,971.37
2022-12-04T09:13:43.509Z,971.34
2022-12-04T09:18:43.430Z,971.45
2022-12-04T09:23:43.364Z,971.37
2022-12-04T09:28:43.296Z,971.32
2022-12-04T09:33:43.258Z,971.33
2022-12-04T09:38:43.209Z,971.24
2022-12-04T09:43:43.135Z,971.23
2022-12-04T09:48:43.086Z,971.08
2022-12-04T09:53:43.015Z,971.14
2022-12-04T09:58:42.957Z,971.08
2022-12-04T10:03:43.081Z,971.04
2022-12-04T10:08:42.826Z,970.89
2022-12-04T10:13:42.773Z,970.89
2022-12-04T10:18:42.695Z,970.79
2022-12-04T10:23:42.635Z,970.83
2022-12-04T10:28:42.584Z,970.76
2022-12-04T10:33:42.508Z,970.74
2022-12-04T10:38:42.444Z,970.58
2022-12-04T10:43:42.394Z,970.46
2022-12-04T10:48:42.318Z,970.55
2022-12-04T10:53:42.276Z,970.39
2022-12-04T10:58:42.188Z,970.33
2022-12-04T11:03:42.176Z,970.28
2022-12-04T11:08:42.045Z,970.26
2022-12-04T11:13:42.006Z,970.26
2022-12-04T11:18:41.945Z,970.18
2022-12-04T11:23:41.886Z,970.04
2022-12-04T11:28:42.810Z,969.96
2022-12-04T11:33:41.738Z,969.93
2022-12-04T11:38:41.691Z,969.82
2022-12-04T11:43:41.617Z,969.84
2022-12-04T11:48:41.582Z,969.72
2022-12-04T11:53:41.495Z,969.80
2022-12-04T11:58:41.434Z,969.77
2022-12-04T12:03:41.441Z,969.80
2022-12-04T12:08:41.307Z,969.72
2022-12-04T12:13:41.294Z,969.68
2022-12-04T12:18:41.214Z,969.62
2022-12-04T12:23:41.144Z,969.59
2022-12-04T12:28:41.061Z,969.63
2022-12-04T12:33:41.007Z,969.52
2022-12-04T12:38:40.917Z,969.58
2022-12-04T12:43:40.902Z,969.39
2022-12-04T12:48:40.777Z,969.61
2022-12-04T12:53:40.728Z,969.58
2022-12-04T12:58:40.657Z,969.53
2022-12-04T13:03:40.597Z,969.54
2022-12-04T13:08:43.593Z,969.53
2022-12-04T13:13:41.486Z,969.46
2022-12-04T13:18:40.421Z,969.41
2022-12-04T13:23:40.345Z,969.35
2022-12-04T13:28:40.269Z,969.48
2022-12-04T13:33:40.217Z,969.32
2022-12-04T13:38:40.164Z,969.33
2022-12-04T13:43:40.128Z,969.28
2022-12-04T13:48:40.049Z,969.24
2022-12-04T13:53:39.996Z,969.19
2022-12-04T13:58:39.910Z,969.14
2022-12-04T14:03:39.860Z,969.02
2022-12-04T14:08:39.805Z,969.00
2022-12-04T14:13:39.702Z,968.90
2022-12-04T14:18:39.638Z,968.89
2022-12-04T14:23:39.579Z,968.88
2022-12-04T14:28:42.151Z,968.74
2022-12-04T14:33:39.458Z,968.76
2022-12-04T14:38:39.380Z,968.75
2022-12-04T14:43:39.338Z,968.60
2022-12-04T14:48:39.257Z,968.49
2022-12-04T14:53:39.239Z,968.58
2022-12-04T14:58:39.155Z,968.47
2022-12-04T15:03:39.098Z,968.34
2022-12-04T15:08:39.034Z,968.44
2022-12-04T15:13:38.969Z,968.44
2022-12-04T15:18:39.760Z,968.46
2022-12-04T15:23:38.833Z,968.37
2022-12-04T15:28:38.774Z,968.59
2022-12-04T15:33:38.716Z,968.51
2022-12-04T15:38:38.643Z,968.55
2022-12-04T15:43:38.570Z,968.68
2022-12-04T15:48:38.506Z,968.67
2022-12-04T15:53:38.443Z,968.70
2022-12-04T15:58:38.403Z,968.64
2022-12-04T16:03:38.388Z,968.67
2022-12-04T16:08:38.274Z,968.67
2022-12-04T16:13:38.207Z,968.83
2022-12-04T16:18:38.132Z,968.79
2022-12-04T16:23:38.130Z,968.83
2022-12-04T16:28:37.999Z,968.84
2022-12-04T16:33:37.963Z,968.84
2022-12-04T16:38:37.865Z,968.93
2022-12-04T16:43:37.805Z,968.99
2022-12-04T16:48:37.727Z,968.99
2022-12-04T16:53:37.678Z,969.05
2022-12-04T16:58:37.620Z,969.00
2022-12-04T17:03:37.588Z,968.97
2022-12-04T17:08:37.501Z,968.97
2022-12-04T17:13:37.436Z,969.04
2022-12-04T17:18:37.364Z,968.83
2022-12-04T17:23:37.361Z,968.91
2022-12-04T17:28:37.255Z,968.85
2022-12-04T17:33:37.180Z,968.89
2022-12-04T17:38:37.133Z,968.88
2022-12-04T17:43:37.054Z,969.11
2022-12-04T17:48:36.990Z,969.14
2022-12-04T17:53:36.942Z,968.99
2022-12-04T17:58:36.882Z,969.05
2022-12-04T18:03:36.813Z,969.12
2022-12-04T18:08:36.755Z,969.10
2022-12-04T18:13:36.679Z,969.13
2022-12-04T18:18:36.602Z,969.15
2022-12-04T18:23:36.542Z,969.22
2022-12-04T18:28:36.463Z,969.16
2022-12-04T18:33:36.396Z,969.09
2022-12-04T18:38:36.343Z,969.20
2022-12-04T18:43:36.271Z,969.09
2022-12-04T18:48:36.217Z,969.15
2022-12-04T18:53:36.151Z,969.06
2022-12-04T18:58:36.083Z,969.23
2022-12-04T19:03:36.058Z,969.22
2022-12-04T19:08:41.434Z,969.26
2022-12-04T19:13:36.904Z,969.19
2022-12-04T19:18:35.841Z,969.23
2022-12-04T19:23:35.763Z,969.30
2022-12-04T19:28:36.053Z,969.34
2022-12-04T19:33:35.683Z,969.41
2022-12-04T19:38:35.641Z,969.43
2022-12-04T19:43:35.571Z,969.55
2022-12-04T19:48:35.492Z,969.50
2022-12-04T19:53:40.714Z,969.66
2022-12-04T19:58:36.340Z,969.75
2022-12-04T20:03:35.287Z,969.79
2022-12-04T20:08:35.212Z,969.84
2022-12-04T20:13:35.155Z,969.90
2022-12-04T20:18:35.081Z,969.86
2022-12-04T20:23:35.044Z,969.88
2022-12-04T20:28:34.990Z,969.87
2022-12-04T20:33:34.933Z,969.89
2022-12-04T20:38:35.040Z,969.96
2022-12-04T20:43:34.783Z,969.92
2022-12-04T20:48:34.713Z,969.90
2022-12-04T20:53:34.663Z,969.78
2022-12-04T20:58:34.624Z,969.82
2022-12-04T21:03:34.553Z,969.83
2022-12-04T21:08:34.504Z,969.76
2022-12-04T21:13:34.476Z,969.93
2022-12-04T21:18:34.399Z,969.95
2022-12-04T21:23:34.331Z,970.10
2022-12-04T21:28:34.225Z,970.16
2022-12-04T21:33:34.163Z,970.24
2022-12-04T21:38:34.111Z,970.29
2022-12-04T21:43:34.070Z,970.37
2022-12-04T21:48:34.013Z,970.56
2022-12-04T21:53:38.075Z,970.55
2022-12-04T21:58:34.863Z,970.61
2022-12-04T22:03:33.834Z,970.66
2022-12-04T22:08:33.758Z,970.66
2022-12-04T22:13:33.694Z,970.72
2022-12-04T22:18:33.603Z,970.74
2022-12-04T22:23:33.555Z,970.81
2022-12-04T22:28:33.484Z,970.76
2022-12-04T22:33:33.423Z,970.67
2022-12-04T22:38:34.690Z,970.65
2022-12-04T22:43:40.513Z,970.69
2022-12-04T22:48:34.484Z,970.62
2022-12-04T22:53:33.173Z,970.61
2022-12-04T22:58:33.135Z,970.68
2022-12-04T23:03:33.181Z,970.84
2022-12-04T23:08:33.050Z,970.81
2022-12-04T23:13:32.946Z,970.81
2022-12-04T23:18:32.869Z,970.85
2022-12-04T23:23:32.807Z,970.92
2022-12-04T23:28:32.760Z,971.01
2022-12-04T23:33:32.693Z,971.01
2022-12-04T23:38:32.685Z,971.09
2022-12-04T23:43:33.026Z,971.19
2022-12-04T23:48:32.552Z,971.38
2022-12-04T23:53:32.510Z,971.27
2022-12-04T23:58:32.378Z,971.37
